Time;durP1;ratioP1;P1;durP2;ratioP2;P2;SDS_P1;SDS_P2;PMS_P1;PMS_P2;Temp;Humidity;BMP_temperature;BMP_pressure;BME280_temperature;BME280_humidity;BME280_pressure;Samples;Min_cycle;Max_cycle;Signal;HPM_P1;HPM_P2
2023/01/11 00:01:20;;;;;;;;;;;;;;;-144.47;100.00;61586.06;4929311;28;20425;-82
2023/01/11 00:03:46;;;;;;;;;;;;;;;-144.47;100.00;61586.06;4948214;28;20002;-81
2023/01/11 00:06:11;;;;;;;;;;;;;;;-144.47;100.00;61586.06;4960812;28;19945;-83
2023/01/11 00:08:37;;;;;;;;;;;;;;;-144.47;100.00;61586.06;4967168;28;19919;-82
2023/01/11 00:11:03;;;;;;;;;;;;;;;-144.47;100.00;61586.06;4938493;28;19970;-84
2023/01/11 00:13:28;;;;;;;;;;;;;;;-144.47;100.00;61586.06;4942247;28;20413;-83
2023/01/11 00:15:54;;;;;;;;;;;;;;;-144.47;100.00;61586.06;4941296;28;19927;-83
2023/01/11 00:18:19;;;;;;;;;;;;;;;-144.47;100.00;61586.06;4921239;28;20830;-85
2023/01/11 00:20:45;;;;;;;;;;;;;;;-144.47;100.00;61586.06;4927324;28;19927;-84
2023/01/11 00:23:10;;;;;;;;;;;;;;;-144.47;100.00;61586.06;4940777;28;19921;-82
2023/01/11 00:25:36;;;;;;;;;;;;;;;-144.47;100.00;61586.06;4953577;28;19997;-82
2023/01/11 00:28:01;;;;;;;;;;;;;;;-144.47;100.00;61586.06;4927499;28;19919;-82
2023/01/11 00:30:26;;;;;;;;;;;;;;;-144.47;100.00;61586.06;4968391;28;19932;-85
2023/01/11 00:32:56;;;;;;;;;;;;;;;-144.47;100.00;61586.06;4947074;28;20648;-81
2023/01/11 00:35:21;;;;;;;;;;;;;;;-144.47;100.00;61586.06;4959836;28;19927;-83
2023/01/11 00:37:47;;;;;;;;;;;;;;;-144.47;100.00;61586.06;4925995;28;19926;-81
2023/01/11 00:40:12;;;;;;;;;;;;;;;-144.47;100.00;61586.06;4968848;28;20412;-81
2023/01/11 00:48:14;;;;;;;18.42;9.30;;;;;;;-144.47;100.00;61586.06;4925953;28;20123;-83
2023/01/11 00:50:40;;;;;;;15.30;10.15;;;;;;;-144.47;100.00;61586.06;4929127;28;20042;-82
2023/01/11 00:53:07;;;;;;;11.93;8.93;;;;;;;-144.47;100.00;61586.06;4942620;28;20099;-82
2023/01/11 00:55:33;;;;;;;16.23;9.77;;;;;;;-144.47;100.00;61586.06;4925346;28;20158;-82
2023/01/11 00:57:59;;;;;;;14.85;10.32;;;;;;;-144.47;100.00;61586.06;4937038;28;20048;-81
2023/01/11 01:00:26;;;;;;;14.02;9.18;;;;;;;-144.47;100.00;61586.06;4936335;28;20036;-84
2023/01/11 01:02:52;;;;;;;17.27;10.73;;;;;;;-144.47;100.00;61586.06;4946026;28;20044;-85
2023/01/11 01:05:18;;;;;;;13.30;9.85;;;;;;;-144.47;100.00;61586.06;4946389;28;20045;-84
2023/01/11 01:07:44;;;;;;;12.02;9.45;;;;;;;-144.47;100.00;61586.06;4949941;28;20091;-85
2023/01/11 01:10:11;;;;;;;13.85;9.60;;;;;;;-144.47;100.00;61586.06;4941905;28;20100;-87
2023/01/11 01:15:21;;;;;;;11.88;9.07;;;;;;;-144.47;100.00;61586.06;4947889;28;20106;-86
2023/01/11 01:17:47;;;;;;;12.25;8.98;;;;;;;-144.47;100.00;61586.06;4954164;28;20539;-85
2023/01/11 01:20:13;;;;;;;14.93;9.38;;;;;;;-144.47;100.00;61586.06;4949205;28;20119;-81
2023/01/11 01:22:39;;;;;;;14.25;9.55;;;;;;;-144.47;100.00;61586.06;4953366;28;20044;-81
2023/01/11 01:25:05;;;;;;;14.13;9.73;;;;;;;-144.47;100.00;61586.06;4934645;28;20071;-81
2023/01/11 01:27:31;;;;;;;14.63;10.05;;;;;;;-144.47;100.00;61586.06;4935312;28;20141;-82
2023/01/11 01:29:56;;;;;;;13.25;9.43;;;;;;;-144.47;100.00;61586.06;4955750;28;20047;-80
2023/01/11 01:32:22;;;;;;;13.52;10.00;;;;;;;-144.47;100.00;61586.06;4935369;28;20035;-81
2023/01/11 01:34:47;;;;;;;17.45;9.70;;;;;;;-144.47;100.00;61586.06;4948510;28;20091;-81
2023/01/11 01:37:14;;;;;;;15.27;9.85;;;;;;;-144.47;100.00;61586.06;4940162;28;20128;-82
2023/01/11 01:39:40;;;;;;;15.35;10.23;;;;;;;-144.47;100.00;61586.06;4932468;28;20117;-79
2023/01/11 01:42:14;;;;;;;15.80;9.80;;;;;;;-144.47;100.00;61586.06;4940296;28;20484;-80
2023/01/11 01:44:57;;;;;;;16.05;10.82;;;;;;;-144.47;100.00;61586.06;4936808;28;20088;-81
2023/01/11 01:47:23;;;;;;;13.37;10.33;;;;;;;-144.47;100.00;61586.06;4927884;28;20776;-83
2023/01/11 01:49:49;;;;;;;17.98;10.70;;;;;;;-144.47;100.00;61586.06;4938865;28;20048;-83
2023/01/11 01:52:15;;;;;;;18.65;11.90;;;;;;;-144.47;100.00;61586.06;4922587;28;20044;-83
2023/01/11 01:54:46;;;;;;;19.83;11.18;;;;;;;-144.47;100.00;61586.06;4911879;28;20032;-81
2023/01/11 01:57:20;;;;;;;17.77;10.98;;;;;;;-144.47;100.00;61586.06;4917267;28;20087;-81
2023/01/11 01:59:50;;;;;;;16.55;10.73;;;;;;;-144.47;100.00;61586.06;4927788;28;20093;-82
2023/01/11 02:02:17;;;;;;;;;;;;;;;-144.47;100.00;61586.06;4920766;28;20109;-82
2023/01/11 02:04:45;;;;;;;16.65;10.68;;;;;;;-144.47;100.00;61586.06;4917362;28;19923;-82
2023/01/11 02:07:19;;;;;;;18.63;10.57;;;;;;;-144.47;100.00;61586.06;4926306;28;20129;-81
2023/01/11 02:10:03;;;;;;;13.25;10.18;;;;;;;-144.47;100.00;61586.06;4908502;28;20155;-81
2023/01/11 02:12:51;;;;;;;18.23;10.80;;;;;;;-144.47;100.00;61586.06;4924200;28;20125;-80
2023/01/11 02:15:20;;;;;;;14.13;10.68;;;;;;;-144.47;100.00;61586.06;4930751;28;20088;-80
2023/01/11 02:17:45;;;;;;;13.52;10.82;;;;;;;-144.47;100.00;61586.06;4933100;28;20086;-79
2023/01/11 02:20:27;;;;;;;18.15;10.77;;;;;;;-144.47;100.00;61586.06;4951536;28;20137;-80
2023/01/11 02:23:14;;;;;;;16.17;10.48;;;;;;;-144.47;100.00;61586.06;4946547;28;20040;-81
2023/01/11 02:26:25;;;;;;;14.20;10.30;;;;;;;-144.47;100.00;61586.06;4928856;28;20030;-83
2023/01/11 02:29:04;;;;;;;;;;;;;;;-144.47;100.00;61586.06;4927357;28;20062;-84
2023/01/11 02:31:39;;;;;;;17.02;10.50;;;;;;;-144.47;100.00;61586.06;4934036;28;19936;-84
2023/01/11 02:34:34;;;;;;;15.15;11.18;;;;;;;-144.47;100.00;61586.06;4964736;28;20036;-85
2023/01/11 02:37:09;;;;;;;16.20;11.05;;;;;;;-144.47;100.00;61586.06;4955655;28;20099;-85
2023/01/11 02:39:51;;;;;;;14.48;10.77;;;;;;;-144.47;100.00;61586.06;4966220;28;20499;-85
2023/01/11 02:45:46;;;;;;;14.48;10.65;;;;;;;-144.47;100.00;61586.06;4937442;28;20655;-84
2023/01/11 02:48:21;;;;;;;11.23;10.02;;;;;;;-144.47;100.00;61586.06;4935623;28;20032;-83
2023/01/11 02:51:10;;;;;;;14.70;10.95;;;;;;;-144.47;100.00;61586.06;4924565;28;20056;-82
2023/01/11 02:53:41;;;;;;;18.23;10.15;;;;;;;-144.47;100.00;61586.06;4931091;28;20145;-82
2023/01/11 02:56:12;;;;;;;14.48;10.23;;;;;;;-144.47;100.00;61586.06;4949580;28;20536;-80
2023/01/11 02:58:42;;;;;;;18.77;10.80;;;;;;;-144.47;100.00;61586.06;4922600;28;20043;-83
2023/01/11 03:01:08;;;;;;;15.00;9.87;;;;;;;-144.47;100.00;61586.06;4920377;28;20458;-83
2023/01/11 03:03:35;;;;;;;17.60;9.90;;;;;;;-144.47;100.00;61586.06;4939772;28;20532;-82
2023/01/11 03:06:34;;;;;;;12.73;9.85;;;;;;;-144.47;100.00;61586.06;4933172;28;20068;-85
2023/01/11 03:08:59;;;;;;;16.63;10.70;;;;;;;-144.47;100.00;61586.06;4930445;28;20880;-85
2023/01/11 03:14:36;;;;;;;14.25;9.73;;;;;;;-144.47;100.00;61586.06;4952887;28;20042;-84
2023/01/11 03:17:26;;;;;;;13.05;10.07;;;;;;;-144.47;100.00;61586.06;4955506;28;20045;-83
2023/01/11 03:20:00;;;;;;;16.92;10.45;;;;;;;-144.47;100.00;61586.06;4913668;28;20036;-80
2023/01/11 03:22:54;;;;;;;12.82;9.70;;;;;;;-144.47;100.00;61586.06;4918011;28;20567;-82
2023/01/11 03:25:34;;;;;;;16.98;10.98;;;;;;;-144.47;100.00;61586.06;4944739;28;20178;-81
2023/01/11 03:28:32;;;;;;;11.85;9.63;;;;;;;-144.47;100.00;61586.06;4946206;28;20049;-81
2023/01/11 03:31:05;;;;;;;14.68;9.85;;;;;;;-144.47;100.00;61586.06;4938446;28;20178;-79
2023/01/11 03:34:00;;;;;;;14.02;10.27;;;;;;;-144.47;100.00;61586.06;4916169;28;20432;-80
2023/01/11 03:36:38;;;;;;;11.10;9.40;;;;;;;-144.47;100.00;61586.06;4927188;28;20972;-79
2023/01/11 03:39:43;;;;;;;15.63;9.50;;;;;;;-144.47;100.00;61586.06;4929818;28;20052;-79
2023/01/11 03:42:12;;;;;;;13.95;9.32;;;;;;;-144.47;100.00;61586.06;4921078;28;20555;-80
2023/01/11 03:44:44;;;;;;;13.73;9.90;;;;;;;-144.47;100.00;61586.06;4922600;28;20059;-79
2023/01/11 03:47:13;;;;;;;13.43;9.52;;;;;;;-144.47;100.00;61586.06;4935722;28;20032;-80
2023/01/11 03:49:48;;;;;;;14.88;9.55;;;;;;;-144.47;100.00;61586.06;4938950;28;20498;-81
2023/01/11 03:52:16;;;;;;;13.82;9.55;;;;;;;-144.47;100.00;61586.06;4927718;28;20696;-83
2023/01/11 03:54:43;;;;;;;15.60;10.57;;;;;;;-144.47;100.00;61586.06;4931798;28;20638;-82
2023/01/11 03:57:14;;;;;;;16.13;9.75;;;;;;;-144.47;100.00;61586.06;4915121;28;20047;-81
2023/01/11 03:59:40;;;;;;;15.95;10.32;;;;;;;-144.47;100.00;61586.06;4919706;28;20098;-81
2023/01/11 04:02:17;;;;;;;13.25;9.82;;;;;;;-144.47;100.00;61586.06;4944574;28;20045;-84
2023/01/11 04:04:43;;;;;;;16.35;11.18;;;;;;;-144.47;100.00;61586.06;4924742;28;20588;-83
2023/01/11 04:07:09;;;;;;;12.85;10.10;;;;;;;-144.47;100.00;61586.06;4916925;28;21420;-83
2023/01/11 04:09:35;;;;;;;14.13;10.10;;;;;;;-144.47;100.00;61586.06;4936618;28;20061;-83
2023/01/11 04:12:00;;;;;;;12.88;9.82;;;;;;;-144.47;100.00;61586.06;4932490;28;20063;-85
2023/01/11 04:14:26;;;;;;;13.05;9.38;;;;;;;-144.47;100.00;61586.06;4937328;28;20045;-85
2023/01/11 04:16:51;;;;;;;13.38;9.52;;;;;;;-144.47;100.00;61586.06;4953951;28;20044;-91
2023/01/11 04:19:17;;;;;;;15.65;9.50;;;;;;;-144.47;100.00;61586.06;4933110;28;20109;-88
2023/01/11 04:21:42;;;;;;;15.20;10.05;;;;;;;-144.47;100.00;61586.06;4937431;28;20040;-84
2023/01/11 04:24:08;;;;;;;16.17;9.43;;;;;;;-144.47;100.00;61586.06;4969063;28;21017;-84
2023/01/11 04:26:34;;;;;;;12.98;9.65;;;;;;;-144.47;100.00;61586.06;4961758;28;20077;-84
2023/01/11 04:28:59;;;;;;;17.17;10.63;;;;;;;-144.47;100.00;61586.06;4956120;28;20040;-83
2023/01/11 04:31:25;;;;;;;16.45;10.63;;;;;;;-144.47;100.00;61586.06;4928249;28;20059;-84
2023/01/11 04:33:50;;;;;;;13.50;10.20;;;;;;;-144.47;100.00;61586.06;4932322;28;20048;-82
2023/01/11 04:36:16;;;;;;;13.93;9.70;;;;;;;-144.47;100.00;61586.06;4931079;28;20070;-82
2023/01/11 04:38:42;;;;;;;11.73;9.05;;;;;;;-144.47;100.00;61586.06;4947322;28;20044;-83
2023/01/11 04:43:55;;;;;;;12.20;8.98;;;;;;;-144.47;100.00;61586.06;4917917;28;20500;-82
2023/01/11 04:46:21;;;;;;;19.15;10.02;;;;;;;-144.47;100.00;61586.06;4927640;28;20044;-82
2023/01/11 04:48:47;;;;;;;18.45;9.70;;;;;;;-144.47;100.00;61586.06;4931196;28;20095;-80
2023/01/11 04:51:12;;;;;;;12.32;9.18;;;;;;;-144.47;100.00;61586.06;4921890;28;20044;-82
2023/01/11 04:53:38;;;;;;;15.70;10.05;;;;;;;-144.47;100.00;61586.06;4915974;28;20040;-82
2023/01/11 04:56:05;;;;;;;15.88;10.18;;;;;;;-144.47;100.00;61586.06;4934291;28;20045;-83
2023/01/11 04:58:34;;;;;;;13.02;9.77;;;;;;;-144.47;100.00;61586.06;4934192;28;20032;-85
2023/01/11 05:01:00;;;;;;;14.80;10.45;;;;;;;-144.47;100.00;61586.06;4933648;28;20046;-85
2023/01/11 05:03:25;;;;;;;15.13;10.20;;;;;;;-144.47;100.00;61586.06;4965477;28;20040;-84
2023/01/11 05:05:59;;;;;;;17.70;10.60;;;;;;;-144.47;100.00;61586.06;4957162;28;20046;-83
2023/01/11 05:08:26;;;;;;;17.27;10.10;;;;;;;-144.47;100.00;61586.06;4935953;28;20497;-82
2023/01/11 05:10:52;;;;;;;12.00;9.00;;;;;;;-144.47;100.00;61586.06;4927521;28;20030;-82
2023/01/11 05:13:18;;;;;;;14.77;10.32;;;;;;;-144.47;100.00;61586.06;4970663;28;20482;-82
2023/01/11 05:15:44;;;;;;;14.35;10.10;;;;;;;-144.47;100.00;61586.06;4953470;28;20047;-81
2023/01/11 05:18:09;;;;;;;13.80;10.93;;;;;;;-144.47;100.00;61586.06;4940410;28;20171;-82
2023/01/11 05:20:35;;;;;;;15.80;9.98;;;;;;;-144.47;100.00;61586.06;4942987;28;20130;-81
2023/01/11 05:23:00;;;;;;;18.80;10.60;;;;;;;-144.47;100.00;61586.06;4943120;28;20036;-82
2023/01/11 05:25:26;;;;;;;18.45;11.23;;;;;;;-144.47;100.00;61586.06;4950828;28;20040;-82
2023/01/11 05:27:52;;;;;;;15.10;10.32;;;;;;;-144.47;100.00;61586.06;4934946;28;20048;-82
2023/01/11 05:30:17;;;;;;;13.55;10.82;;;;;;;-144.47;100.00;61586.06;4961258;28;20032;-84
2023/01/11 05:32:43;;;;;;;15.82;10.00;;;;;;;-144.47;100.00;61586.06;4939589;28;20119;-85
2023/01/11 05:35:09;;;;;;;20.95;10.88;;;;;;;-144.47;100.00;61586.06;4945856;28;20061;-86
2023/01/11 05:37:36;;;;;;;15.88;9.98;;;;;;;-144.47;100.00;61586.06;4933366;28;20555;-84
2023/01/11 05:40:03;;;;;;;15.30;10.60;;;;;;;-144.47;100.00;61586.06;4949309;28;20482;-83
2023/01/11 05:42:29;;;;;;;11.27;9.27;;;;;;;-144.47;100.00;61586.06;4936952;28;20041;-83
2023/01/11 05:47:39;;;;;;;12.50;9.90;;;;;;;-144.47;100.00;61586.06;4948044;28;20498;-84
2023/01/11 05:50:06;;;;;;;10.63;9.02;;;;;;;-144.47;100.00;61586.06;4971542;28;20057;-84
2023/01/11 05:52:32;;;;;;;13.43;9.18;;;;;;;-144.47;100.00;61586.06;4924083;28;20044;-83
2023/01/11 05:54:58;;;;;;;9.95;8.93;;;;;;;-144.47;100.00;61586.06;4952347;28;20502;-84
2023/01/11 05:57:24;;;;;;;13.13;9.90;;;;;;;-144.47;100.00;61586.06;4925480;28;20044;-84
2023/01/11 05:59:49;;;;;;;12.73;8.90;;;;;;;-144.47;100.00;61586.06;4920497;28;20047;-83
2023/01/11 06:02:15;;;;;;;13.45;9.52;;;;;;;-144.47;100.00;61586.06;4914626;28;20152;-83
2023/01/11 06:04:41;;;;;;;16.58;10.57;;;;;;;-144.47;100.00;61586.06;4939533;28;20087;-81
2023/01/11 06:07:09;;;;;;;13.50;9.57;;;;;;;-144.47;100.00;61586.06;4961539;28;20063;-91
2023/01/11 06:09:36;;;;;;;13.00;9.27;;;;;;;-144.47;100.00;61586.06;4948813;28;20094;-86
2023/01/11 06:12:02;;;;;;;12.98;9.57;;;;;;;-144.47;100.00;61586.06;4942903;28;20070;-83
2023/01/11 06:14:27;;;;;;;12.13;9.45;;;;;;;-144.47;100.00;61586.06;4949634;28;20038;-87
2023/01/11 06:16:53;;;;;;;14.35;9.60;;;;;;;-144.47;100.00;61586.06;4952392;28;20087;-83
2023/01/11 06:19:19;;;;;;;13.93;10.05;;;;;;;-144.47;100.00;61586.06;4944686;28;20044;-82
2023/01/11 06:21:44;;;;;;;13.77;9.32;;;;;;;-144.47;100.00;61586.06;4957810;28;20067;-81
2023/01/11 06:24:10;;;;;;;12.48;9.32;;;;;;;-144.47;100.00;61586.06;4943238;28;20263;-80
2023/01/11 06:26:36;;;;;;;14.77;10.25;;;;;;;-144.47;100.00;61586.06;4927948;28;20079;-80
2023/01/11 06:29:02;;;;;;;17.63;10.55;;;;;;;-144.47;100.00;61586.06;4957189;28;20770;-81
2023/01/11 06:31:27;;;;;;;15.00;9.55;;;;;;;-144.47;100.00;61586.06;4923364;28;20038;-78
2023/01/11 06:33:53;;;;;;;17.17;10.40;;;;;;;-144.47;100.00;61586.06;4907972;28;20059;-78
2023/01/11 06:36:18;;;;;;;13.18;9.98;;;;;;;-144.47;100.00;61586.06;4928898;28;20041;-78
2023/01/11 06:38:44;;;;;;;15.98;10.15;;;;;;;-144.47;100.00;61586.06;4941022;28;20049;-80
2023/01/11 06:41:10;;;;;;;15.70;10.52;;;;;;;-144.47;100.00;61586.06;4919710;28;20044;-79
2023/01/11 06:43:39;;;;;;;17.40;9.57;;;;;;;-144.47;100.00;61586.06;4931582;28;20578;-79
2023/01/11 06:46:09;;;;;;;13.23;9.88;;;;;;;-144.47;100.00;61586.06;4926293;28;20048;-82
2023/01/11 06:48:35;;;;;;;15.57;10.02;;;;;;;-144.47;100.00;61586.06;4928787;28;20764;-81
2023/01/11 06:51:00;;;;;;;17.05;10.68;;;;;;;-144.47;100.00;61586.06;4927422;28;20064;-78
2023/01/11 06:53:27;;;;;;;15.45;9.10;;;;;;;-144.47;100.00;61586.06;4932117;28;20036;-77
2023/01/11 06:55:55;;;;;;;15.07;9.98;;;;;;;-144.47;100.00;61586.06;4928789;28;20075;-76
2023/01/11 06:58:24;;;;;;;12.60;9.90;;;;;;;-144.47;100.00;61586.06;4920609;28;20069;-75
2023/01/11 07:00:51;;;;;;;18.60;11.60;;;;;;;-144.47;100.00;61586.06;4917909;28;20048;-80
2023/01/11 07:03:19;;;;;;;18.30;12.77;;;;;;;-144.47;100.00;61586.06;4919530;28;20233;-76
2023/01/11 07:05:45;;;;;;;16.38;11.55;;;;;;;-144.47;100.00;61586.06;4916815;28;20044;-76
2023/01/11 07:08:11;;;;;;;16.63;10.52;;;;;;;-144.47;100.00;61586.06;4931009;28;20033;-77
2023/01/11 07:10:42;;;;;;;13.98;9.60;;;;;;;-144.47;100.00;61586.06;4956705;28;20036;-77
2023/01/11 07:13:16;;;;;;;17.73;10.13;;;;;;;-144.47;100.00;61586.06;4938269;28;20042;-79
2023/01/11 07:15:47;;;;;;;15.45;10.85;;;;;;;-144.47;100.00;61586.06;4917745;28;20040;-78
2023/01/11 07:18:13;;;;;;;17.98;10.73;;;;;;;-144.47;100.00;61586.06;4920386;28;20046;-76
2023/01/11 07:20:39;;;;;;;14.35;10.30;;;;;;;-144.47;100.00;61586.06;4968059;28;20059;-77
2023/01/11 07:23:06;;;;;;;17.88;10.27;;;;;;;-144.47;100.00;61586.06;4921494;28;20091;-77
2023/01/11 07:25:32;;;;;;;13.30;10.65;;;;;;;-144.47;100.00;61586.06;4935382;28;21216;-78
2023/01/11 07:28:03;;;;;;;16.73;10.20;;;;;;;-144.47;100.00;61586.06;4923948;28;20098;-78
2023/01/11 07:30:31;;;;;;;15.52;10.60;;;;;;;-144.47;100.00;61586.06;4924686;28;20044;-78
2023/01/11 07:32:58;;;;;;;16.17;10.88;;;;;;;-144.47;100.00;61586.06;4926141;28;20044;-77
2023/01/11 07:35:24;;;;;;;17.40;11.23;;;;;;;-144.47;100.00;61586.06;4963035;28;20860;-78
2023/01/11 07:37:49;;;;;;;15.07;10.95;;;;;;;-144.47;100.00;61586.06;4909534;28;20044;-77
2023/01/11 07:40:16;;;;;;;15.30;11.45;;;;;;;-144.47;100.00;61586.06;4941312;28;20045;-78
2023/01/11 07:45:36;;;;;;;16.60;10.93;;;;;;;-144.47;100.00;61586.06;4932848;28;20118;-77
2023/01/11 07:48:04;;;;;;;14.85;10.63;;;;;;;-144.47;100.00;61586.06;4936115;28;20036;-77
2023/01/11 07:50:30;;;;;;;19.63;11.98;;;;;;;-144.47;100.00;61586.06;4935765;28;20179;-78
2023/01/11 07:52:56;;;;;;;14.80;10.68;;;;;;;-144.47;100.00;61586.06;4957129;28;20463;-78
2023/01/11 07:55:21;;;;;;;18.50;11.75;;;;;;;-144.47;100.00;61586.06;4914511;28;20044;-77
2023/01/11 07:57:47;;;;;;;18.90;10.30;;;;;;;-144.47;100.00;61586.06;4922632;28;20067;-79
2023/01/11 08:00:13;;;;;;;16.15;11.77;;;;;;;-144.47;100.00;61586.06;4930151;28;20044;-78
2023/01/11 08:02:39;;;;;;;15.85;11.80;;;;;;;-144.47;100.00;61586.06;4933007;28;20024;-78
2023/01/11 08:05:05;;;;;;;17.02;11.35;;;;;;;-144.47;100.00;61586.06;4930062;28;20093;-77
2023/01/11 08:07:31;;;;;;;18.50;12.13;;;;;;;-144.47;100.00;61586.06;4933452;28;20122;-77
2023/01/11 08:09:56;;;;;;;15.27;10.35;;;;;;;-144.47;100.00;61586.06;4944897;28;20047;-78
2023/01/11 08:15:09;;;;;;;15.48;10.90;;;;;;;-144.47;100.00;61586.06;4923131;28;20036;-77
2023/01/11 08:17:36;;;;;;;18.85;13.32;;;;;;;-144.47;100.00;61586.06;4944672;28;20048;-77
2023/01/11 08:20:02;;;;;;;19.50;11.48;;;;;;;-144.47;100.00;61586.06;4917178;28;20467;-76
2023/01/11 08:22:27;;;;;;;22.15;11.93;;;;;;;-144.47;100.00;61586.06;4922126;28;20556;-77
2023/01/11 08:24:53;;;;;;;19.83;11.95;;;;;;;-144.47;100.00;61586.06;4932157;28;20048;-78
2023/01/11 08:27:19;;;;;;;15.23;11.55;;;;;;;-144.47;100.00;61586.06;4923518;28;20155;-78
2023/01/11 08:29:44;;;;;;;19.10;13.23;;;;;;;-144.47;100.00;61586.06;4917275;28;20039;-78
2023/01/11 08:32:11;;;;;;;20.13;13.60;;;;;;;-144.47;100.00;61586.06;4919408;28;20114;-77
2023/01/11 08:34:38;;;;;;;21.35;13.98;;;;;;;-144.47;100.00;61586.06;4931508;28;20117;-77
2023/01/11 08:37:04;;;;;;;20.67;13.13;;;;;;;-144.47;100.00;61586.06;4923101;28;20064;-76
2023/01/11 08:39:30;;;;;;;22.10;14.05;;;;;;;-144.47;100.00;61586.06;4923728;28;20044;-78
2023/01/11 08:41:56;;;;;;;23.17;14.38;;;;;;;-144.47;100.00;61586.06;4933715;28;20517;-77
2023/01/11 08:44:22;;;;;;;26.10;14.13;;;;;;;-144.47;100.00;61586.06;4926500;28;20515;-77
2023/01/11 08:46:48;;;;;;;21.25;13.40;;;;;;;-144.47;100.00;61586.06;4937968;28;20053;-77
2023/01/11 08:49:13;;;;;;;20.90;14.25;;;;;;;-144.47;100.00;61586.06;4940190;28;20250;-77
2023/01/11 08:51:40;;;;;;;22.98;13.73;;;;;;;-144.47;100.00;61586.06;4911147;28;20036;-78
2023/01/11 08:54:09;;;;;;;20.10;14.18;;;;;;;-144.47;100.00;61586.06;4959602;28;20044;-77
2023/01/11 08:56:35;;;;;;;22.48;14.35;;;;;;;-144.47;100.00;61586.06;4920875;28;20033;-77
2023/01/11 08:59:03;;;;;;;23.23;15.30;;;;;;;-144.47;100.00;61586.06;4918374;28;20508;-78
2023/01/11 09:01:28;;;;;;;23.33;15.98;;;;;;;-144.47;100.00;61586.06;4971787;28;20449;-78
2023/01/11 09:03:54;;;;;;;23.40;14.48;;;;;;;-144.47;100.00;61586.06;4929649;28;20048;-76
2023/01/11 09:06:21;;;;;;;23.20;15.52;;;;;;;-144.47;100.00;61586.06;4945530;28;20110;-78
2023/01/11 09:08:47;;;;;;;23.50;14.70;;;;;;;-144.47;100.00;61586.06;4968966;28;20123;-78
2023/01/11 09:13:57;;;;;;;23.65;14.65;;;;;;;-144.47;100.00;61586.06;4932526;28;20784;-79
2023/01/11 09:16:23;;;;;;;23.55;15.52;;;;;;;-144.47;100.00;61586.06;4925823;28;20032;-78
2023/01/11 09:18:49;;;;;;;20.77;14.63;;;;;;;-144.47;100.00;61586.06;4916767;28;20450;-78
2023/01/11 09:21:14;;;;;;;21.92;15.23;;;;;;;-144.47;100.00;61586.06;4921297;28;20463;-80
2023/01/11 09:23:40;;;;;;;23.38;14.43;;;;;;;-144.47;100.00;61586.06;4921272;28;20028;-77
2023/01/11 09:26:06;;;;;;;22.70;14.60;;;;;;;-144.47;100.00;61586.06;4923794;28;20037;-77
2023/01/11 09:28:31;;;;;;;19.33;14.75;;;;;;;-144.47;100.00;61586.06;4946047;28;20037;-81
2023/01/11 09:30:57;;;;;;;22.23;14.65;;;;;;;-144.47;100.00;61586.06;4929635;28;20577;-83
2023/01/11 09:33:22;;;;;;;20.55;14.18;;;;;;;-144.47;100.00;61586.06;4941327;28;20040;-78
2023/01/11 09:35:50;;;;;;;20.05;13.50;;;;;;;-144.47;100.00;61586.06;4931671;28;20040;-81
2023/01/11 09:38:17;;;;;;;20.30;13.95;;;;;;;-144.47;100.00;61586.06;4914362;28;20500;-79
2023/01/11 09:40:44;;;;;;;21.90;14.80;;;;;;;-144.47;100.00;61586.06;4936742;28;20144;-79
2023/01/11 09:43:13;;;;;;;25.85;15.07;;;;;;;-144.47;100.00;61586.06;4915672;28;20498;-77
2023/01/11 09:45:45;;;;;;;19.85;15.35;;;;;;;-144.47;100.00;61586.06;4954266;28;20112;-77
2023/01/11 09:48:32;;;;;;;25.42;15.52;;;;;;;-144.47;100.00;61586.06;4919480;28;20579;-79
2023/01/11 09:50:59;;;;;;;23.45;15.00;;;;;;;-144.47;100.00;61586.06;4947427;28;20064;-78
2023/01/11 09:53:34;;;;;;;22.73;14.27;;;;;;;-144.47;100.00;61586.06;4925035;28;20032;-78
2023/01/11 09:56:03;;;;;;;25.45;13.85;;;;;;;-144.47;100.00;61586.06;4926786;28;20131;-80
2023/01/11 09:59:02;;;;;;;20.02;13.65;;;;;;;-144.47;100.00;61586.06;4926551;28;20052;-80
2023/01/11 10:01:39;;;;;;;;;;;;;;;-144.47;100.00;61586.06;4915613;28;20052;-78
2023/01/11 10:04:19;;;;;;;;;;;;;;;-144.47;100.00;61586.06;4933866;28;20103;-80
2023/01/11 10:06:48;;;;;;;;;;;;;;;-144.47;100.00;61586.06;4934308;28;20359;-80
2023/01/11 10:09:34;;;;;;;;;;;;;;;-144.47;100.00;61586.06;4919262;28;20000;-79
2023/01/11 10:12:15;;;;;;;;;;;;;;;-144.47;100.00;61586.06;4925926;28;19927;-82
2023/01/11 10:14:49;;;;;;;;;;;;;;;-144.47;100.00;61586.06;4942436;28;19919;-81
2023/01/11 10:17:21;;;;;;;;;;;;;;;-144.47;100.00;61586.06;4938725;28;19944;-83
2023/01/11 10:19:52;;;;;;;;;;;;;;;-144.47;100.00;61586.06;4931950;28;19923;-81
2023/01/11 10:22:22;;;;;;;;;;;;;;;-144.47;100.00;61586.06;4939862;28;20354;-82
2023/01/11 10:24:47;;;;;;;;;;;;;;;-144.47;100.00;61586.06;4942421;28;19929;-82
2023/01/11 10:27:35;;;;;;;;;;;;;;;-144.47;100.00;61586.06;4966260;28;19923;-83
2023/01/11 10:30:22;;;;;;;;;;;;;;;-144.47;100.00;61586.06;4916403;29;20371;-81
2023/01/11 10:39:16;;;;;;;;;;;;;;;-144.47;100.00;61586.06;4979286;28;20286;-83
2023/01/11 10:41:58;;;;;;;;;;;;;;;-144.47;100.00;61586.06;4979595;28;19929;-81
2023/01/11 10:44:33;;;;;;;;;;;;;;;-144.47;100.00;61586.06;4978239;28;19925;-83
2023/01/11 10:47:00;;;;;;;;;;;;;;;-144.47;100.00;61586.06;4985367;28;20469;-89
2023/01/11 10:49:37;;;;;;;;;;;;;;;-144.47;100.00;61586.06;4983499;28;19925;-88
2023/01/11 10:52:22;;;;;;;;;;;;;;;-144.47;100.00;61586.06;4991203;28;20352;-88
2023/01/11 10:54:53;;;;;;;;;;;;;;;-144.47;100.00;61586.06;5007222;28;19918;-87
2023/01/11 10:57:37;;;;;;;;;;;;;;;-144.47;100.00;61586.06;4959855;28;19921;-85
2023/01/11 11:00:16;;;;;;;;;;;;;;;-144.47;100.00;61586.06;4992701;28;19918;-84
2023/01/11 11:02:47;;;;;;;;;;;;;;;-144.47;100.00;61586.06;4991519;28;19918;-82
2023/01/11 11:05:12;;;;;;;;;;;;;;;-144.47;100.00;61586.06;4986424;28;20360;-84
2023/01/11 11:07:54;;;;;;;;;;;;;;;-144.47;100.00;61586.06;4985999;28;19920;-84
2023/01/11 11:10:39;;;;;;;21.08;14.52;;;;;;;-144.47;100.00;61586.06;4927530;28;20298;-83
2023/01/11 11:13:41;;;;;;;21.95;14.27;;;;;;;-144.47;100.00;61586.06;4911629;29;20058;-83
2023/01/11 11:16:23;;;;;;;18.52;13.38;;;;;;;-144.47;100.00;61586.06;4911874;29;20538;-84
2023/01/11 11:18:54;;;;;;;;;;;;;;;-144.47;100.00;61586.06;4925674;28;20032;-84
2023/01/11 11:21:32;;;;;;;;;;;;;;;-144.47;100.00;61586.06;4908690;28;19924;-84
2023/01/11 11:24:20;;;;;;;;;;;;;;;-144.47;100.00;61586.06;4910329;28;20013;-84
2023/01/11 11:26:48;;;;;;;;;;;;;;;-144.47;100.00;61586.06;4906170;28;20407;-83
2023/01/11 11:29:18;;;;;;;;;;;;;;;-144.47;100.00;61586.06;4909595;28;20276;-84
2023/01/11 11:31:45;;;;;;;;;;;;;;;-144.47;100.00;61586.06;4909136;29;19926;-84
2023/01/11 11:34:16;;;;;;;;;;;;;;;-144.47;100.00;61586.06;4909912;28;20423;-85
2023/01/11 11:36:42;;;;;;;;;;;;;;;-144.47;100.00;61586.06;4909423;28;19983;-84
2023/01/11 11:39:09;;;;;;;;;;;;;;;-144.47;100.00;61586.06;4911054;28;19919;-84
2023/01/11 11:41:46;;;;;;;;;;;;;;;-144.47;100.00;61586.06;4914374;28;19935;-83
2023/01/11 11:44:16;;;;;;;;;;;;;;;-144.47;100.00;61586.06;4961486;28;20287;-84
2023/01/11 11:46:54;;;;;;;;;;;;;;;-144.47;100.00;61586.06;4915517;29;20375;-85
2023/01/11 11:49:20;;;;;;;;;;;;;;;-144.47;100.00;61586.06;4911927;29;20445;-84
2023/01/11 11:51:46;;;;;;;;;;;;;;;-144.47;100.00;61586.06;4916824;28;20006;-84
2023/01/11 11:54:21;;;;;;;;;;;;;;;-144.47;100.00;61586.06;4914316;28;20612;-84
2023/01/11 11:56:46;;;;;;;;;;;;;;;-144.47;100.00;61586.06;4917030;28;19919;-84
2023/01/11 11:59:16;;;;;;;;;;;;;;;-144.47;100.00;61586.06;4924909;28;19924;-85